sensor_id;sensor_type;location;lat;lon;timestamp;pressure;altitude;pressure_sealevel;temperature;humidity
63033;BME280;49121;38.932;-9.018;2022-10-16T00:00:02;101400.59;;;17.21;91.92
63033;BME280;49121;38.932;-9.018;2022-10-16T00:02:24;101399.59;;;17.25;91.65
63033;BME280;49121;38.932;-9.018;2022-10-16T00:04:43;101391.47;;;17.30;91.62
63033;BME280;49121;38.932;-9.018;2022-10-16T00:06:48;101379.13;;;17.27;91.27
63033;BME280;49121;38.932;-9.018;2022-10-16T00:08:50;101386.00;;;17.34;91.09
63033;BME280;49121;38.932;-9.018;2022-10-16T00:10:50;101383.25;;;17.37;90.75
63033;BME280;49121;38.932;-9.018;2022-10-16T00:13:14;101387.53;;;17.42;90.43
63033;BME280;49121;38.932;-9.018;2022-10-16T00:15:14;101377.78;;;17.42;90.65
63033;BME280;49121;38.932;-9.018;2022-10-16T00:17:15;101370.66;;;17.43;90.37
63033;BME280;49121;38.932;-9.018;2022-10-16T00:21:54;101376.53;;;17.54;89.41
63033;BME280;49121;38.932;-9.018;2022-10-16T00:24:00;101384.47;;;17.55;89.38
63033;BME280;49121;38.932;-9.018;2022-10-16T00:26:20;101384.34;;;17.58;89.05
63033;BME280;49121;38.932;-9.018;2022-10-16T00:28:21;101377.34;;;17.56;88.94
63033;BME280;49121;38.932;-9.018;2022-10-16T00:30:21;101378.94;;;17.62;88.82
63033;BME280;49121;38.932;-9.018;2022-10-16T00:32:42;101374.41;;;17.65;88.98
63033;BME280;49121;38.932;-9.018;2022-10-16T00:35:01;101378.81;;;17.66;89.00
63033;BME280;49121;38.932;-9.018;2022-10-16T00:37:04;101373.38;;;17.69;88.91
63033;BME280;49121;38.932;-9.018;2022-10-16T00:39:10;101367.09;;;17.72;88.47
63033;BME280;49121;38.932;-9.018;2022-10-16T00:41:29;101359.03;;;17.73;88.22
63033;BME280;49121;38.932;-9.018;2022-10-16T00:45:36;101345.47;;;17.81;87.65
63033;BME280;49121;38.932;-9.018;2022-10-16T00:47:40;101340.88;;;17.86;87.40
63033;BME280;49121;38.932;-9.018;2022-10-16T00:52:05;101345.13;;;17.93;86.60
63033;BME280;49121;38.932;-9.018;2022-10-16T00:54:10;101343.31;;;17.94;86.70
63033;BME280;49121;38.932;-9.018;2022-10-16T00:56:12;101333.47;;;17.96;86.65
63033;BME280;49121;38.932;-9.018;2022-10-16T00:58:12;101327.28;;;17.95;86.59
63033;BME280;49121;38.932;-9.018;2022-10-16T01:00:18;101314.81;;;17.96;86.43
63033;BME280;49121;38.932;-9.018;2022-10-16T01:02:39;101313.03;;;17.96;86.53
63033;BME280;49121;38.932;-9.018;2022-10-16T01:10:40;101318.41;;;17.95;86.58
63033;BME280;49121;38.932;-9.018;2022-10-16T01:15:37;101323.72;;;17.95;87.06
63033;BME280;49121;38.932;-9.018;2022-10-16T01:17:45;101322.81;;;17.96;87.05
63033;BME280;49121;38.932;-9.018;2022-10-16T01:20:11;101326.34;;;17.96;87.03
63033;BME280;49121;38.932;-9.018;2022-10-16T01:22:15;101306.09;;;17.91;86.72
63033;BME280;49121;38.932;-9.018;2022-10-16T01:24:43;101329.81;;;17.98;86.72
63033;BME280;49121;38.932;-9.018;2022-10-16T01:29:26;101320.03;;;17.99;86.82
63033;BME280;49121;38.932;-9.018;2022-10-16T01:31:32;101317.31;;;18.01;86.91
63033;BME280;49121;38.932;-9.018;2022-10-16T01:33:39;101314.66;;;18.01;86.60
63033;BME280;49121;38.932;-9.018;2022-10-16T01:35:44;101298.69;;;18.01;86.81
63033;BME280;49121;38.932;-9.018;2022-10-16T01:40:15;101303.03;;;18.03;86.42
63033;BME280;49121;38.932;-9.018;2022-10-16T01:42:21;101303.84;;;18.05;86.22
63033;BME280;49121;38.932;-9.018;2022-10-16T01:44:32;101302.97;;;18.05;85.76
63033;BME280;49121;38.932;-9.018;2022-10-16T01:46:39;101289.72;;;18.03;85.66
63033;BME280;49121;38.932;-9.018;2022-10-16T01:51:06;101290.66;;;18.02;85.60
63033;BME280;49121;38.932;-9.018;2022-10-16T01:53:10;101286.06;;;18.06;85.89
63033;BME280;49121;38.932;-9.018;2022-10-16T01:55:16;101283.47;;;18.04;85.75
63033;BME280;49121;38.932;-9.018;2022-10-16T01:57:55;101281.66;;;18.05;85.92
63033;BME280;49121;38.932;-9.018;2022-10-16T02:00:01;101278.34;;;17.98;85.83
63033;BME280;49121;38.932;-9.018;2022-10-16T02:02:12;101280.84;;;18.03;85.89
63033;BME280;49121;38.932;-9.018;2022-10-16T02:04:25;101275.47;;;18.04;86.00
63033;BME280;49121;38.932;-9.018;2022-10-16T02:06:27;101267.47;;;18.04;85.94
63033;BME280;49121;38.932;-9.018;2022-10-16T02:08:48;101276.28;;;18.06;85.87
63033;BME280;49121;38.932;-9.018;2022-10-16T02:11:03;101270.06;;;18.06;86.09
63033;BME280;49121;38.932;-9.018;2022-10-16T02:18:03;101262.06;;;18.06;89.92
63033;BME280;49121;38.932;-9.018;2022-10-16T02:20:04;101262.06;;;18.06;90.22
63033;BME280;49121;38.932;-9.018;2022-10-16T02:22:09;101255.06;;;18.03;90.39
63033;BME280;49121;38.932;-9.018;2022-10-16T02:26:44;101256.88;;;18.03;92.59
63033;BME280;49121;38.932;-9.018;2022-10-16T02:32:01;101254.34;;;18.00;93.46
63033;BME280;49121;38.932;-9.018;2022-10-16T02:34:21;101250.13;;;17.92;93.44
63033;BME280;49121;38.932;-9.018;2022-10-16T02:36:25;101265.00;;;18.00;93.47
63033;BME280;49121;38.932;-9.018;2022-10-16T02:38:26;101263.22;;;17.98;94.03
63033;BME280;49121;38.932;-9.018;2022-10-16T02:40:31;101272.22;;;17.96;94.37
63033;BME280;49121;38.932;-9.018;2022-10-16T02:42:37;101266.84;;;17.97;94.33
63033;BME280;49121;38.932;-9.018;2022-10-16T02:44:38;101259.16;;;17.88;94.77
63033;BME280;49121;38.932;-9.018;2022-10-16T02:46:39;101266.28;;;17.88;94.13
63033;BME280;49121;38.932;-9.018;2022-10-16T02:48:43;101265.41;;;17.87;94.08
63033;BME280;49121;38.932;-9.018;2022-10-16T02:50:47;101261.00;;;17.86;94.44
63033;BME280;49121;38.932;-9.018;2022-10-16T02:52:47;101266.44;;;17.83;94.39
63033;BME280;49121;38.932;-9.018;2022-10-16T02:54:48;101270.91;;;17.83;94.48
63033;BME280;49121;38.932;-9.018;2022-10-16T02:56:49;101274.41;;;17.83;94.35
63033;BME280;49121;38.932;-9.018;2022-10-16T02:58:50;101277.09;;;17.83;94.42
63033;BME280;49121;38.932;-9.018;2022-10-16T03:00:50;101268.25;;;17.81;94.31
63033;BME280;49121;38.932;-9.018;2022-10-16T03:02:51;101282.38;;;17.85;94.17
63033;BME280;49121;38.932;-9.018;2022-10-16T03:04:52;101288.56;;;17.85;93.88
63033;BME280;49121;38.932;-9.018;2022-10-16T03:06:52;101294.75;;;17.86;94.15
63033;BME280;49121;38.932;-9.018;2022-10-16T03:08:53;101300.91;;;17.88;93.75
63033;BME280;49121;38.932;-9.018;2022-10-16T03:10:54;101298.19;;;17.89;93.87
63033;BME280;49121;38.932;-9.018;2022-10-16T03:13:12;101300.84;;;17.89;93.81
63033;BME280;49121;38.932;-9.018;2022-10-16T03:15:16;101291.09;;;17.88;93.27
63033;BME280;49121;38.932;-9.018;2022-10-16T03:17:17;101289.25;;;17.90;93.05
63033;BME280;49121;38.932;-9.018;2022-10-16T03:19:18;101282.28;;;17.86;92.83
63033;BME280;49121;38.932;-9.018;2022-10-16T03:21:18;101283.88;;;17.92;92.76
63033;BME280;49121;38.932;-9.018;2022-10-16T03:23:22;101290.84;;;17.96;92.52
63033;BME280;49121;38.932;-9.018;2022-10-16T03:25:23;101271.38;;;17.94;92.17
63033;BME280;49121;38.932;-9.018;2022-10-16T03:27:23;101273.75;;;18.02;91.94
63033;BME280;49121;38.932;-9.018;2022-10-16T03:29:42;101259.28;;;18.10;90.99
63033;BME280;49121;38.932;-9.018;2022-10-16T03:34:02;101255.78;;;18.08;90.85
63033;BME280;49121;38.932;-9.018;2022-10-16T03:36:03;101256.63;;;18.10;90.59
63033;BME280;49121;38.932;-9.018;2022-10-16T03:38:04;101248.66;;;18.09;90.54
63033;BME280;49121;38.932;-9.018;2022-10-16T03:40:05;101252.16;;;18.11;90.37
63033;BME280;49121;38.932;-9.018;2022-10-16T03:42:06;101243.28;;;18.10;90.20
63033;BME280;49121;38.932;-9.018;2022-10-16T03:44:07;101246.78;;;18.12;90.27
63033;BME280;49121;38.932;-9.018;2022-10-16T03:46:07;101245.72;;;18.16;89.79
63033;BME280;49121;38.932;-9.018;2022-10-16T03:48:10;101241.38;;;18.14;89.79
63033;BME280;49121;38.932;-9.018;2022-10-16T03:50:11;101239.63;;;18.13;89.98
63033;BME280;49121;38.932;-9.018;2022-10-16T03:52:11;101249.34;;;18.14;90.17
63033;BME280;49121;38.932;-9.018;2022-10-16T03:56:55;101244.38;;;18.05;91.28
63033;BME280;49121;38.932;-9.018;2022-10-16T03:58:56;101243.50;;;18.04;91.29
63033;BME280;49121;38.932;-9.018;2022-10-16T04:01:00;101239.84;;;18.07;91.38
63033;BME280;49121;38.932;-9.018;2022-10-16T04:10:42;101251.16;;;18.13;90.34
63033;BME280;49121;38.932;-9.018;2022-10-16T04:12:43;101245.84;;;18.13;90.31
63033;BME280;49121;38.932;-9.018;2022-10-16T04:14:44;101249.31;;;18.15;90.46
63033;BME280;49121;38.932;-9.018;2022-10-16T04:16:44;101245.72;;;18.16;90.14
63033;BME280;49121;38.932;-9.018;2022-10-16T04:21:45;101244.81;;;18.17;89.82
63033;BME280;49121;38.932;-9.018;2022-10-16T04:24:04;101242.91;;;18.21;89.66
63033;BME280;49121;38.932;-9.018;2022-10-16T04:26:23;101250.91;;;18.21;89.72
63033;BME280;49121;38.932;-9.018;2022-10-16T04:28:29;101260.63;;;18.22;89.61
63033;BME280;49121;38.932;-9.018;2022-10-16T04:30:29;101261.47;;;18.23;89.55
63033;BME280;49121;38.932;-9.018;2022-10-16T04:37:28;101259.81;;;18.20;88.72
63033;BME280;49121;38.932;-9.018;2022-10-16T04:39:29;101247.47;;;18.17;88.57
63033;BME280;49121;38.932;-9.018;2022-10-16T04:41:29;101257.03;;;18.23;88.32
63033;BME280;49121;38.932;-9.018;2022-10-16T04:43:39;101263.22;;;18.24;88.10
63033;BME280;49121;38.932;-9.018;2022-10-16T04:45:43;101266.00;;;18.21;88.06
63033;BME280;49121;38.932;-9.018;2022-10-16T04:47:44;101272.03;;;18.26;87.96
63033;BME280;49121;38.932;-9.018;2022-10-16T04:49:45;101269.38;;;18.26;87.93
63033;BME280;49121;38.932;-9.018;2022-10-16T04:51:45;101271.97;;;18.27;87.93
63033;BME280;49121;38.932;-9.018;2022-10-16T04:56:42;101272.88;;;18.28;87.78
63033;BME280;49121;38.932;-9.018;2022-10-16T04:59:06;101280.84;;;18.28;87.56
63033;BME280;49121;38.932;-9.018;2022-10-16T05:01:06;101271.88;;;18.30;87.59
63033;BME280;49121;38.932;-9.018;2022-10-16T05:03:07;101271.06;;;18.28;87.33
63033;BME280;49121;38.932;-9.018;2022-10-16T05:05:09;101271.88;;;18.30;87.19
63033;BME280;49121;38.932;-9.018;2022-10-16T05:07:09;101268.34;;;18.30;86.60
63033;BME280;49121;38.932;-9.018;2022-10-16T05:09:10;101273.69;;;18.30;86.57
63033;BME280;49121;38.932;-9.018;2022-10-16T05:11:11;101277.16;;;18.32;86.44
63033;BME280;49121;38.932;-9.018;2022-10-16T05:13:12;101271.88;;;18.30;86.48
63033;BME280;49121;38.932;-9.018;2022-10-16T05:15:27;101280.69;;;18.32;86.21
63033;BME280;49121;38.932;-9.018;2022-10-16T05:17:29;101278.03;;;18.32;86.26
63033;BME280;49121;38.932;-9.018;2022-10-16T05:19:29;101278.84;;;18.34;86.23
63033;BME280;49121;38.932;-9.018;2022-10-16T05:21:33;101284.25;;;18.31;86.25
63033;BME280;49121;38.932;-9.018;2022-10-16T05:25:58;101297.50;;;18.34;86.57
63033;BME280;49121;38.932;-9.018;2022-10-16T05:33:15;101299.94;;;18.41;86.02
63033;BME280;49121;38.932;-9.018;2022-10-16T05:35:34;101301.78;;;18.38;86.10
63033;BME280;49121;38.932;-9.018;2022-10-16T05:37:35;101304.50;;;18.37;86.39
63033;BME280;49121;38.932;-9.018;2022-10-16T05:39:36;101315.13;;;18.38;86.67
63033;BME280;49121;38.932;-9.018;2022-10-16T05:41:37;101316.88;;;18.38;86.67
63033;BME280;49121;38.932;-9.018;2022-10-16T05:46:16;101305.78;;;18.25;88.61
63033;BME280;49121;38.932;-9.018;2022-10-16T05:48:17;101315.56;;;18.26;88.94
63033;BME280;49121;38.932;-9.018;2022-10-16T05:50:17;101309.34;;;18.26;88.40
63033;BME280;49121;38.932;-9.018;2022-10-16T05:52:18;101321.69;;;18.28;88.32
63033;BME280;49121;38.932;-9.018;2022-10-16T05:56:38;101302.28;;;18.25;88.32
63033;BME280;49121;38.932;-9.018;2022-10-16T05:58:40;101311.91;;;18.29;88.24
63033;BME280;49121;38.932;-9.018;2022-10-16T06:03:18;101301.84;;;18.37;87.72
63033;BME280;49121;38.932;-9.018;2022-10-16T06:05:26;101307.22;;;18.35;88.07
63033;BME280;49121;38.932;-9.018;2022-10-16T06:07:26;101309.16;;;18.32;88.49
63033;BME280;49121;38.932;-9.018;2022-10-16T06:09:50;101304.06;;;18.24;89.66
63033;BME280;49121;38.932;-9.018;2022-10-16T06:11:51;101308.63;;;18.21;89.90
63033;BME280;49121;38.932;-9.018;2022-10-16T06:13:53;101300.47;;;18.25;89.74
63033;BME280;49121;38.932;-9.018;2022-10-16T06:15:57;101301.56;;;18.19;90.17
63033;BME280;49121;38.932;-9.018;2022-10-16T06:17:58;101306.13;;;18.16;90.69
63033;BME280;49121;38.932;-9.018;2022-10-16T06:19:59;101288.69;;;18.07;91.21
63033;BME280;49121;38.932;-9.018;2022-10-16T06:22:07;101295.69;;;18.10;91.90
63033;BME280;49121;38.932;-9.018;2022-10-16T06:24:11;101295.97;;;18.02;92.73
63033;BME280;49121;38.932;-9.018;2022-10-16T06:26:13;101303.88;;;18.04;92.63
63033;BME280;49121;38.932;-9.018;2022-10-16T06:30:33;101296.00;;;18.01;93.25
63033;BME280;49121;38.932;-9.018;2022-10-16T06:32:34;101283.69;;;17.98;93.58
63033;BME280;49121;38.932;-9.018;2022-10-16T06:34:35;101287.25;;;17.97;93.89
63033;BME280;49121;38.932;-9.018;2022-10-16T06:36:36;101277.69;;;17.91;94.39
63033;BME280;49121;38.932;-9.018;2022-10-16T06:38:40;101271.59;;;17.88;93.86
63033;BME280;49121;38.932;-9.018;2022-10-16T06:43:57;101284.59;;;17.97;94.51
63033;BME280;49121;38.932;-9.018;2022-10-16T06:56:29;101269.75;;;17.90;95.20
63033;BME280;49121;38.932;-9.018;2022-10-16T06:58:50;101285.63;;;17.93;95.07
63033;BME280;49121;38.932;-9.018;2022-10-16T07:00:55;101279.41;;;17.92;94.89
63033;BME280;49121;38.932;-9.018;2022-10-16T07:05:41;101290.00;;;17.95;94.62
63033;BME280;49121;38.932;-9.018;2022-10-16T07:07:42;101298.69;;;18.01;94.54
63033;BME280;49121;38.932;-9.018;2022-10-16T07:09:43;101297.91;;;17.97;94.08
63033;BME280;49121;38.932;-9.018;2022-10-16T07:11:44;101299.72;;;17.96;93.89
63033;BME280;49121;38.932;-9.018;2022-10-16T07:13:45;101289.16;;;17.93;94.15
63033;BME280;49121;38.932;-9.018;2022-10-16T07:15:49;101294.41;;;17.95;94.08
63033;BME280;49121;38.932;-9.018;2022-10-16T07:18:08;101284.59;;;17.97;93.58
63033;BME280;49121;38.932;-9.018;2022-10-16T07:20:27;101288.06;;;17.99;93.46
63033;BME280;49121;38.932;-9.018;2022-10-16T07:22:53;101294.41;;;17.95;94.02
63033;BME280;49121;38.932;-9.018;2022-10-16T07:27:13;101307.03;;;17.90;93.95
63033;BME280;49121;38.932;-9.018;2022-10-16T07:29:16;101308.03;;;17.87;93.72
63033;BME280;49121;38.932;-9.018;2022-10-16T07:31:19;101300.44;;;17.73;93.53
63033;BME280;49121;38.932;-9.018;2022-10-16T07:33:21;101316.22;;;17.79;94.04
63033;BME280;49121;38.932;-9.018;2022-10-16T07:35:21;101322.41;;;17.80;94.35
63033;BME280;49121;38.932;-9.018;2022-10-16T07:37:22;101315.69;;;17.70;94.40
63033;BME280;49121;38.932;-9.018;2022-10-16T07:39:31;101307.63;;;17.71;93.97
63033;BME280;49121;38.932;-9.018;2022-10-16T07:41:32;101324.16;;;17.83;93.78
63033;BME280;49121;38.932;-9.018;2022-10-16T07:43:37;101317.91;;;17.84;93.85
63033;BME280;49121;38.932;-9.018;2022-10-16T07:48:44;101312.22;;;17.94;92.98
63033;BME280;49121;38.932;-9.018;2022-10-16T07:50:47;101323.53;;;18.01;92.37
63033;BME280;49121;38.932;-9.018;2022-10-16T07:52:48;101313.81;;;18.00;92.03
63033;BME280;49121;38.932;-9.018;2022-10-16T07:54:48;101314.50;;;18.05;91.83
63033;BME280;49121;38.932;-9.018;2022-10-16T07:56:49;101330.41;;;18.08;91.28
63033;BME280;49121;38.932;-9.018;2022-10-16T07:58:50;101328.59;;;18.09;91.11
63033;BME280;49121;38.932;-9.018;2022-10-16T08:00:50;101328.56;;;18.10;90.61
63033;BME280;49121;38.932;-9.018;2022-10-16T08:02:51;101338.09;;;18.16;90.53
63033;BME280;49121;38.932;-9.018;2022-10-16T08:04:52;101338.66;;;18.26;90.26
63033;BME280;49121;38.932;-9.018;2022-10-16T08:09:49;101350.81;;;18.34;87.90
63033;BME280;49121;38.932;-9.018;2022-10-16T08:11:51;101348.81;;;18.39;88.21
63033;BME280;49121;38.932;-9.018;2022-10-16T08:13:53;101344.91;;;18.50;87.99
63033;BME280;49121;38.932;-9.018;2022-10-16T08:18:53;101356.53;;;18.49;86.51
63033;BME280;49121;38.932;-9.018;2022-10-16T08:21:15;101362.72;;;18.49;85.69
63033;BME280;49121;38.932;-9.018;2022-10-16T08:23:16;101366.41;;;18.45;85.66
63033;BME280;49121;38.932;-9.018;2022-10-16T08:28:33;101360.09;;;18.23;86.18
63033;BME280;49121;38.932;-9.018;2022-10-16T08:33:30;101366.88;;;18.31;85.33
63033;BME280;49121;38.932;-9.018;2022-10-16T08:35:30;101355.53;;;18.26;85.01
63033;BME280;49121;38.932;-9.018;2022-10-16T08:39:58;101364.09;;;18.36;84.33
63033;BME280;49121;38.932;-9.018;2022-10-16T08:46:31;101385.25;;;18.41;84.21
63033;BME280;49121;38.932;-9.018;2022-10-16T08:48:50;101366.88;;;18.31;83.97
63033;BME280;49121;38.932;-9.018;2022-10-16T08:50:52;101379.47;;;18.28;84.02
63033;BME280;49121;38.932;-9.018;2022-10-16T08:52:55;101395.50;;;18.26;84.75
63033;BME280;49121;38.932;-9.018;2022-10-16T08:54:56;101401.53;;;18.31;84.90
63033;BME280;49121;38.932;-9.018;2022-10-16T08:57:34;101396.94;;;18.36;84.92
63033;BME280;49121;38.932;-9.018;2022-10-16T08:59:35;101397.69;;;18.40;84.77
63033;BME280;49121;38.932;-9.018;2022-10-16T09:01:41;101389.47;;;18.46;83.46
63033;BME280;49121;38.932;-9.018;2022-10-16T09:06:45;101373.09;;;18.57;83.60
63033;BME280;49121;38.932;-9.018;2022-10-16T09:16:52;101380.97;;;18.85;80.87
63033;BME280;49121;38.932;-9.018;2022-10-16T09:19:01;101380.03;;;18.88;80.89
63033;BME280;49121;38.932;-9.018;2022-10-16T09:21:30;101371.94;;;18.89;80.38
63033;BME280;49121;38.932;-9.018;2022-10-16T09:23:34;101365.91;;;18.84;80.07
63033;BME280;49121;38.932;-9.018;2022-10-16T09:25:35;101377.81;;;18.74;80.82
63033;BME280;49121;38.932;-9.018;2022-10-16T09:27:37;101362.44;;;18.82;80.27
63033;BME280;49121;38.932;-9.018;2022-10-16T09:29:38;101370.00;;;18.94;79.89
63033;BME280;49121;38.932;-9.018;2022-10-16T09:31:39;101378.50;;;19.04;79.53
63033;BME280;49121;38.932;-9.018;2022-10-16T09:36:00;101368.59;;;19.08;79.17
63033;BME280;49121;38.932;-9.018;2022-10-16T09:38:04;101357.09;;;19.06;78.93
63033;BME280;49121;38.932;-9.018;2022-10-16T09:40:05;101377.75;;;19.24;78.73
63033;BME280;49121;38.932;-9.018;2022-10-16T09:44:30;101380.63;;;19.19;77.88
63033;BME280;49121;38.932;-9.018;2022-10-16T09:47:00;101371.00;;;19.37;77.35
63033;BME280;49121;38.932;-9.018;2022-10-16T09:49:25;101371.81;;;19.39;77.24
63033;BME280;49121;38.932;-9.018;2022-10-16T09:56:06;101361.59;;;19.05;77.73
63033;BME280;49121;38.932;-9.018;2022-10-16T09:58:13;101377.38;;;19.11;77.98
63033;BME280;49121;38.932;-9.018;2022-10-16T10:00:16;101379.22;;;19.09;77.94
63033;BME280;49121;38.932;-9.018;2022-10-16T10:05:29;101386.34;;;19.32;77.46
63033;BME280;49121;38.932;-9.018;2022-10-16T10:07:32;101393.84;;;19.45;76.71
63033;BME280;49121;38.932;-9.018;2022-10-16T10:09:38;101388.84;;;19.37;76.40
63033;BME280;49121;38.932;-9.018;2022-10-16T10:19:23;101390.28;;;19.22;77.82
63033;BME280;49121;38.932;-9.018;2022-10-16T10:21:24;101377.44;;;19.32;77.29
63033;BME280;49121;38.932;-9.018;2022-10-16T10:23:26;101382.78;;;19.32;77.12
63033;BME280;49121;38.932;-9.018;2022-10-16T10:25:51;101386.81;;;19.20;77.65
63033;BME280;49121;38.932;-9.018;2022-10-16T10:54:10;101384.25;;;21.66;65.60
63033;BME280;49121;38.932;-9.018;2022-10-16T11:12:39;101358.59;;;21.97;65.76
63033;BME280;49121;38.932;-9.018;2022-10-16T11:17:35;101371.97;;;22.66;61.83
63033;BME280;49121;38.932;-9.018;2022-10-16T11:19:48;101356.97;;;22.80;61.87
63033;BME280;49121;38.932;-9.018;2022-10-16T11:22:37;101363.38;;;23.11;61.49
63033;BME280;49121;38.932;-9.018;2022-10-16T11:25:18;101370.41;;;23.29;60.65
63033;BME280;49121;38.932;-9.018;2022-10-16T11:29:49;101349.66;;;22.99;61.15
63033;BME280;49121;38.932;-9.018;2022-10-16T11:32:06;101352.47;;;22.96;61.58
63033;BME280;49121;38.932;-9.018;2022-10-16T11:34:31;101345.94;;;22.69;62.23
63033;BME280;49121;38.932;-9.018;2022-10-16T11:36:42;101357.72;;;22.49;62.86
63033;BME280;49121;38.932;-9.018;2022-10-16T11:46:35;101334.47;;;22.82;62.41
63033;BME280;49121;38.932;-9.018;2022-10-16T11:53:16;101338.16;;;23.77;59.24
63033;BME280;49121;38.932;-9.018;2022-10-16T11:55:31;101344.47;;;23.92;57.03
63033;BME280;49121;38.932;-9.018;2022-10-16T11:57:51;101342.81;;;23.73;57.09
63033;BME280;49121;38.932;-9.018;2022-10-16T11:59:59;101334.31;;;23.65;57.88
63033;BME280;49121;38.932;-9.018;2022-10-16T12:02:26;101334.59;;;23.60;57.31
63033;BME280;49121;38.932;-9.018;2022-10-16T12:04:51;101324.56;;;23.48;57.26
63033;BME280;49121;38.932;-9.018;2022-10-16T12:07:14;101317.47;;;23.31;57.61
63033;BME280;49121;38.932;-9.018;2022-10-16T12:09:28;101310.19;;;23.01;58.71
63033;BME280;49121;38.932;-9.018;2022-10-16T12:11:36;101318.47;;;22.97;58.73
63033;BME280;49121;38.932;-9.018;2022-10-16T12:13:39;101325.75;;;23.26;58.31
63033;BME280;49121;38.932;-9.018;2022-10-16T12:15:40;101313.50;;;22.89;58.86
63033;BME280;49121;38.932;-9.018;2022-10-16T12:17:41;101315.41;;;23.20;58.58
63033;BME280;49121;38.932;-9.018;2022-10-16T12:19:42;101311.94;;;23.18;58.18
63033;BME280;49121;38.932;-9.018;2022-10-16T12:21:46;101304.00;;;23.47;57.81
63033;BME280;49121;38.932;-9.018;2022-10-16T12:23:51;101313.09;;;23.76;57.30
63033;BME280;49121;38.932;-9.018;2022-10-16T12:25:57;101305.75;;;23.94;56.17
63033;BME280;49121;38.932;-9.018;2022-10-16T12:30:35;101304.97;;;23.92;55.64
63033;BME280;49121;38.932;-9.018;2022-10-16T12:32:38;101309.00;;;23.69;56.52
63033;BME280;49121;38.932;-9.018;2022-10-16T12:34:43;101296.09;;;23.60;57.58
63033;BME280;49121;38.932;-9.018;2022-10-16T12:36:44;101283.66;;;23.89;57.33
63033;BME280;49121;38.932;-9.018;2022-10-16T12:38:48;101275.75;;;23.86;56.78
63033;BME280;49121;38.932;-9.018;2022-10-16T12:41:08;101269.69;;;24.27;56.51
63033;BME280;49121;38.932;-9.018;2022-10-16T12:45:59;101253.94;;;24.06;55.21
63033;BME280;49121;38.932;-9.018;2022-10-16T12:48:01;101251.78;;;23.83;55.49
63033;BME280;49121;38.932;-9.018;2022-10-16T12:50:04;101250.19;;;24.09;55.30
63033;BME280;49121;38.932;-9.018;2022-10-16T12:59:49;101251.97;;;24.53;53.50
63033;BME280;49121;38.932;-9.018;2022-10-16T13:09:55;101236.34;;;24.44;53.39
63033;BME280;49121;38.932;-9.018;2022-10-16T13:12:15;101232.38;;;24.51;53.84
63033;BME280;49121;38.932;-9.018;2022-10-16T13:14:49;101221.25;;;24.70;52.49
63033;BME280;49121;38.932;-9.018;2022-10-16T13:19:27;101209.84;;;24.94;51.65
63033;BME280;49121;38.932;-9.018;2022-10-16T13:22:05;101217.34;;;25.03;51.89
63033;BME280;49121;38.932;-9.018;2022-10-16T13:29:21;101218.78;;;24.67;52.62
63033;BME280;49121;38.932;-9.018;2022-10-16T13:31:42;101218.66;;;24.40;52.92
63033;BME280;49121;38.932;-9.018;2022-10-16T13:33:49;101207.81;;;24.41;53.66
63033;BME280;49121;38.932;-9.018;2022-10-16T13:35:55;101225.03;;;24.39;53.61
63033;BME280;49121;38.932;-9.018;2022-10-16T13:38:24;101225.69;;;24.14;54.07
63033;BME280;49121;38.932;-9.018;2022-10-16T13:40:25;101221.53;;;23.63;55.16
63033;BME280;49121;38.932;-9.018;2022-10-16T13:55:33;101240.22;;;23.51;56.17
63033;BME280;49121;38.932;-9.018;2022-10-16T13:57:37;101252.41;;;23.56;56.20
63033;BME280;49121;38.932;-9.018;2022-10-16T13:59:38;101261.34;;;23.57;56.27
63033;BME280;49121;38.932;-9.018;2022-10-16T14:01:43;101248.50;;;23.62;55.54
63033;BME280;49121;38.932;-9.018;2022-10-16T14:06:06;101249.56;;;23.43;56.61
63033;BME280;49121;38.932;-9.018;2022-10-16T14:08:12;101250.28;;;23.47;56.98
63033;BME280;49121;38.932;-9.018;2022-10-16T14:10:30;101247.72;;;23.60;56.52
63033;BME280;49121;38.932;-9.018;2022-10-16T14:14:53;101239.50;;;23.17;57.64
63033;BME280;49121;38.932;-9.018;2022-10-16T14:19:24;101236.25;;;23.26;58.14
63033;BME280;49121;38.932;-9.018;2022-10-16T14:21:26;101237.91;;;23.28;58.42
63033;BME280;49121;38.932;-9.018;2022-10-16T14:26:26;101218.84;;;22.85;59.87
63033;BME280;49121;38.932;-9.018;2022-10-16T14:28:26;101205.69;;;22.81;60.07
63033;BME280;49121;38.932;-9.018;2022-10-16T14:30:29;101201.88;;;22.85;60.00
63033;BME280;49121;38.932;-9.018;2022-10-16T14:37:28;101201.47;;;22.93;64.82
63033;BME280;49121;38.932;-9.018;2022-10-16T14:39:30;101191.31;;;22.98;62.77
63033;BME280;49121;38.932;-9.018;2022-10-16T14:41:32;101182.59;;;23.10;61.04
63033;BME280;49121;38.932;-9.018;2022-10-16T14:43:36;101180.47;;;23.31;62.27
63033;BME280;49121;38.932;-9.018;2022-10-16T14:45:57;101175.25;;;23.58;61.48
63033;BME280;49121;38.932;-9.018;2022-10-16T14:51:16;101173.59;;;23.86;58.97
63033;BME280;49121;38.932;-9.018;2022-10-16T14:53:18;101158.75;;;23.64;59.14
63033;BME280;49121;38.932;-9.018;2022-10-16T14:58:21;101161.81;;;23.14;59.87
63033;BME280;49121;38.932;-9.018;2022-10-16T15:00:23;101170.03;;;22.95;60.73
63033;BME280;49121;38.932;-9.018;2022-10-16T15:02:34;101149.31;;;22.97;60.84
63033;BME280;49121;38.932;-9.018;2022-10-16T15:04:36;101154.50;;;23.00;60.88
63033;BME280;49121;38.932;-9.018;2022-10-16T15:06:37;101174.50;;;22.94;60.96
63033;BME280;49121;38.932;-9.018;2022-10-16T15:08:38;101174.97;;;22.86;61.18
63033;BME280;49121;38.932;-9.018;2022-10-16T15:15:41;101165.50;;;22.79;61.46
63033;BME280;49121;38.932;-9.018;2022-10-16T15:17:45;101171.00;;;22.78;61.00
63033;BME280;49121;38.932;-9.018;2022-10-16T15:19:46;101163.97;;;22.75;61.72
63033;BME280;49121;38.932;-9.018;2022-10-16T15:21:47;101152.00;;;22.49;62.72
63033;BME280;49121;38.932;-9.018;2022-10-16T15:23:49;101162.16;;;22.44;62.96
63033;BME280;49121;38.932;-9.018;2022-10-16T15:25:53;101156.53;;;22.49;62.54